الصفحة الرئيسية
METAR-TAF:

METAR-TAF

مطار :

فلاديفوستوك, روسيا

دائرة عرض: 43-07N, خط طول: 131-56E, ارتفاع: 184 متر

مراقبة الطقس الحالي

تاريخ ووقت الإصدار 22 دقيقة قبل الساعة 15:30UTC
ريح 4 عقدة من الشمال
درجة الحرارة 5°درجة مئوية
الرطوبة 35%
ضغط 1026 hPa
الرؤية 10 كم أو أكثر

METAR: UHWW 221530Z 36002MPS 9999 NSC 05/M09 Q1026 R25L/0///70 NOSIG RMK QFE768

زمن: 01:52 (15:52 UTC)

توقعات

تاريخ ووقت الإصدار 1ساعة و 52 دقيقة قبل الساعة 14:00UTC
التوقعات صالحة من22 الساعة 15 UTC إلى 23 الساعة 15 UTC
ريح 6 عقدة من الشمال الشرقي
الرؤية 10 كم أو أكثر
أصبح
من 22 الساعة 17 UTC إلى 22 الساعة 19 UTC
الرؤية: 3100 متر
غيوم متفرقة على ارتفاع 1100 قدم
غشاء
من 23 الساعة 0000 UTC
ريح 6 عقدة من الجنوب الغربي
الرؤية 10 كم أو أكثر
غيوم متفرقة على ارتفاع 3000 قدم

TAF: UHWW 221400Z 2215/2315 05003MPS 9999 NSC BECMG 2217/2219 3100 BR SCT011 FM230000 22003MPS 9999 SCT030

أرصاد الطقس والتوقعات من أكثر من 4000 مطار (تقارير الطقس للمطار METAR والتنبؤ بالطقس بالمطارTAF).

المحطات المتاحة هي النقط الصفراء والحمراء على الخريطة.

حرك المؤشر فوق النقطة لمعرفة اسم المحطة.

ثم انقر لمعرفة أرصاد وتوقعات الطقس.

لتغيير الخارطة: اضغط على الأزرار الخضراء مع رمز الصليب الأسود للتكبير. على الزر الأخضر مع شرطة للتصغير، أو على الأسهم الخضراء للخرائط المجاورة.


METAR-TAF: